Swanquarter, North Carolina
Current Conditions -  °F | °C
As of 3:56 PM on Tuesday 27 Jan 2015 (Local Time) from K2DP Reporting Station
Broken Clouds Broken Clouds  
Wind Chill: 25°   Ceiling: 1400
Heat Index: 34°   Visibility: 10mi
Dew Point: 30°   Wind: 13mph
Humidity: 84%   Direction: 320°NW
Pressure: 29.78"   Gusts: 18mph
Location:  35.41°N, 76.33°W
Report Text: K2DP 272056Z AUTO 32011G16KT 10SM BKN014 01/M01 A2978 RMK AO2 SLPNO T00131012
Loading
Personal Weather Stations






























Interactive Weather Map New forecast layout! Learn more

10-Day Weather Forecast

Advertisements
Track Severe Weather on mobile